Flight Track Log - Related Links

Times and Time Zones

All times are in EDT time to prevent confusion due to time zone crossing. See the N81AX flight status page for this flight to view local times or setup timezone preferences in your user account.

Time Position Orientation Groundspeed Altitude Reporting Facility
EDT Latitude Longitude Course Direction KTS MPH feet Rate Location/Type
Tue 08:24:33 PM 37.5911 -97.4381 187° South 185 213 5,100  Level Kansas City Center
Tue 08:25:58 PM 37.5953 -97.3256 87° East 258 297 8,700 2,449 Climbing Kansas City Center
Tue 08:27:00 PM 37.6339 -97.2306 63° Northeast 303 349 11,100 2,468 Climbing Kansas City Center
Tue 08:28:02 PM 37.6717 -97.1150 68° East 349 402 13,800 3,677 Climbing Kansas City Center
Tue 08:29:04 PM 37.7292 -96.9794 62° Northeast 365 420 18,700 3,677 Climbing Kansas City Center
Tue 08:30:06 PM 37.7778 -96.8744 60° Northeast 352 405 21,400 2,226 Climbing Kansas City Center
Tue 08:31:08 PM 37.8261 -96.7578 62° Northeast 371 427 23,300 1,935 Climbing Kansas City Center
Tue 08:32:10 PM 37.8806 -96.6356 61° Northeast 397 457 25,400 2,129 Climbing Kansas City Center
Tue 08:33:12 PM 37.9364 -96.5089 61° Northeast 409 471 27,700 2,146 Climbing Kansas City Center
Tue 08:34:13 PM 37.9875 -96.3811 63° Northeast 409 471 29,800 1,073 Climbing Kansas City Center
Tue 08:35:15 PM 38.0553 -96.2183 62° Northeast 434 499 29,900 532 Climbing Kansas City Center
Tue 08:36:17 PM 38.1133 -96.0633 65° Northeast 463 533 30,900 1,694 Climbing Kansas City Center
Tue 08:37:19 PM 38.1667 -95.9272 63° Northeast 452 520 33,400 2,226 Climbing Kansas City Center
Tue 08:38:21 PM 38.2292 -95.7806 61° Northeast 429 494 35,500 1,500 Climbing Kansas City Center
Tue 08:39:23 PM 38.2803 -95.6522 63° Northeast 426 490 36,500 927 Climbing Kansas City Center
Tue 08:40:24 PM 38.3283 -95.5214 65° Northeast 427 491 37,400 976 Climbing Kansas City Center
Tue 08:41:26 PM 38.3944 -95.3697 61° Northeast 435 501 38,500 968 Climbing Kansas City Center
Tue 08:42:28 PM 38.4508 -95.2408 61° Northeast 436 502 39,400 774 Climbing Kansas City Center
Tue 08:43:30 PM 38.5086 -95.0881 64° Northeast 429 494 40,100 390 Climbing Kansas City Center
Tue 08:44:31 PM 38.5578 -94.9536 65° Northeast 436 502 40,200 293 Climbing Kansas City Center
Tue 08:45:33 PM 38.6189 -94.7956 64° Northeast 445 512 40,700 435 Climbing Kansas City Center
Tue 08:46:35 PM 38.6756 -94.6592 62° Northeast 453 521 41,100 484 Climbing Kansas City Center
Tue 08:47:37 PM 38.7389 -94.4994 63° Northeast 452 520 41,700 488 Climbing Kansas City Center
Tue 08:48:38 PM 38.7906 -94.3617 64° Northeast 450 518 42,100 293 Climbing Kansas City Center
Tue 08:49:40 PM 38.8453 -94.1969 67° East 451 519 42,300 194 Climbing Kansas City Center
Tue 08:50:42 PM 38.8947 -94.0553 66° East 455 524 42,500 242 Climbing Kansas City Center
Tue 08:51:44 PM 38.9494 -93.9158 63° Northeast 456 525 42,800 244 Climbing Kansas City Center
Tue 08:52:45 PM 39.0078 -93.7497 66° East 457 526 43,000 98 Climbing Kansas City Center
Tue 08:53:47 PM 39.0594 -93.6081 65° Northeast 457 526 43,000  Level Kansas City Center
Tue 08:54:49 PM 39.1222 -93.4400 64° Northeast 464 534 43,000  Level Kansas City Center
Tue 08:55:50 PM 39.1711 -93.3028 65° Northeast 472 543 43,000  Level Kansas City Center
Tue 08:56:52 PM 39.2394 -93.1211 64° Northeast 474 545 43,000  Level Kansas City Center
Tue 08:57:54 PM 39.3006 -92.9728 62° Northeast 474 545 43,000  Level Kansas City Center
Tue 08:58:55 PM 39.3525 -92.8219 66° East 468 539 43,000  Level Kansas City Center
Tue 08:59:57 PM 39.4064 -92.6694 65° Northeast 470 541 43,000  Level Kansas City Center
Tue 09:00:59 PM 39.4642 -92.5236 63° Northeast 467 537 43,000  Level Kansas City Center
Tue 09:02:01 PM 39.5258 -92.3439 66° East 461 531 43,000  Level Kansas City Center
Tue 09:03:02 PM 39.5817 -92.1942 64° Northeast 465 535 43,000  Level Kansas City Center
Tue 09:04:04 PM 39.6381 -92.0428 64° Northeast 470 541 43,000  Level Kansas City Center
Tue 09:05:06 PM 39.6925 -91.8861 66° East 480 552 43,000  Level Kansas City Center
Tue 09:06:07 PM 39.7461 -91.7344 65° Northeast 476 548 43,000  Level Kansas City Center
Tue 09:07:09 PM 39.8122 -91.5561 64° Northeast 464 534 43,000  Level Kansas City Center
Tue 09:08:11 PM 39.8628 -91.4014 67° East 470 541 43,000  Level Kansas City Center
Tue 09:09:13 PM 39.9186 -91.2469 65° Northeast 473 544 43,000  Level Kansas City Center
Tue 09:10:14 PM 39.9733 -91.0961 65° Northeast 469 540 43,000  Level Kansas City Center
Tue 09:11:16 PM 40.0197 -90.9358 69° East 471 542 43,000  Level Kansas City Center
Tue 09:12:18 PM 40.0681 -90.7783 68° East 470 541 43,000  Level Kansas City Center
Tue 09:13:19 PM 40.1181 -90.6225 67° East 468 539 43,000  Level Kansas City Center
Tue 09:14:08 PM 40.1661 -90.4656 68° East 465 535 43,000  Level Chicago Center
Tue 09:15:10 PM 40.2150 -90.3067 68° East 470 541 43,000  Level Chicago Center
Tue 09:16:12 PM 40.2697 -90.1525 65° Northeast 470 541 43,000  Level Chicago Center
Tue 09:17:13 PM 40.3186 -89.9958 68° East 468 539 43,000  Level Chicago Center
Tue 09:18:15 PM 40.3700 -89.8414 66° East 467 537 43,000  Level Chicago Center
Tue 09:19:17 PM 40.4225 -89.6897 66° East 464 534 43,000  Level Chicago Center
Tue 09:20:18 PM 40.4769 -89.5031 69° East 461 531 43,000  Level Chicago Center
Tue 09:21:20 PM 40.5264 -89.3486 67° East 464 534 43,000  Level Chicago Center
Tue 09:22:22 PM 40.5778 -89.1947 66° East 463 533 43,000  Level Chicago Center
Tue 09:23:24 PM 40.6283 -89.0386 67° East 467 537 43,000  Level Chicago Center
Tue 09:24:25 PM 40.6778 -88.8831 67° East 463 533 43,000  Level Chicago Center
Tue 09:25:27 PM 40.7306 -88.7250 66° East 465 535 43,000  Level Chicago Center
Tue 09:26:28 PM 40.7878 -88.5364 68° East 465 535 43,000  Level Chicago Center
Tue 09:27:30 PM 40.8389 -88.3825 66° East 465 535 43,000  Level Chicago Center
Tue 09:28:32 PM 40.8897 -88.2244 67° East 471 542 43,000  Level Chicago Center
Tue 09:29:34 PM 40.9342 -88.0661 70° East 466 536 43,000 -537 Level Chicago Center
Tue 09:30:35 PM 40.9847 -87.9136 66° East 460 529 41,900 -1,317 Descending Chicago Center
Tue 09:31:37 PM 41.0447 -87.7311 66° East 456 525 40,300 -1,355 Descending Chicago Center
Tue 09:32:39 PM 41.0878 -87.5803 69° East 447 514 39,100 -1,415 Descending Chicago Center
Tue 09:33:40 PM 41.1336 -87.4389 67° East 427 491 37,400 -1,951 Descending Chicago Center
Tue 09:34:42 PM 41.1742 -87.2922 70° East 427 491 35,100 -2,244 Descending Chicago Center
Tue 09:35:43 PM 41.2119 -87.1386 72° East 441 507 32,800 -2,049 Descending Chicago Center
Tue 09:36:45 PM 41.2578 -86.9892 68° East 443 510 30,900 -2,081 Descending Chicago Center
Tue 09:37:47 PM 41.3117 -86.8092 68° East 442 509 28,500 -2,049 Descending Chicago Center
Tue 09:38:48 PM 41.3558 -86.6647 68° East 437 503 26,700 -1,854 Descending Chicago Center
Tue 09:39:50 PM 41.4039 -86.5078 68° East 455 524 24,700 -1,415 Descending Chicago Center
Tue 09:40:51 PM 41.4456 -86.3436 71° East 468 539 23,800 -976 Descending Chicago Center
Tue 09:41:53 PM 41.4889 -86.1931 69° East 438 504 22,700 -1,366 Descending Chicago Center
Tue 09:42:54 PM 41.5328 -86.0489 68° East 425 489 21,000 -1,805 Descending Chicago Center
Tue 09:43:56 PM 41.5733 -85.9025 70° East 420 483 19,000 -2,098 Descending Chicago Center
Tue 09:44:57 PM 41.6206 -85.7281 70° East 412 474 16,700 -1,770 Descending Chicago Center
Tue 09:45:58 PM 41.6564 -85.6017 69° East 365 420 15,400 -1,561 Descending Chicago Center
Tue 09:47:00 PM 41.6933 -85.4803 68° East 346 398 13,500 -1,951 Descending Chicago Center
Tue 09:48:01 PM 41.7244 -85.3458 73° East 363 418 11,400 -1,659 Descending Chicago Center
Tue 09:49:03 PM 41.7556 -85.2256 71° East 347 399 10,100 -1,610 Descending Chicago Center
Tue 09:50:04 PM 41.7869 -85.1222 68° East 311 358 8,100 -2,164 Descending Chicago Center
Tue 09:51:05 PM 41.8133 -85.0133 72° East 306 352 5,700 -1,512 Descending Chicago Center
Tue 09:52:07 PM 41.8461 -84.9178 65° Northeast 291 335 5,000 -341 Descending Chicago Center
Tue 09:53:08 PM 41.8769 -84.8403 62° Northeast 251 289 5,000 -492 Level Chicago Center
Tue 09:54:09 PM 41.9067 -84.7697 60° Northeast 228 262 4,000 -829 Descending Chicago Center
Tue 09:55:11 PM 41.9342 -84.6956 63° Northeast 224 258 3,300 -677 Descending Chicago Center

Login

Don't have an account? Register now (free) for customized features, flight alerts, and more!